Terminal Aerodrome Forecast
Issued by NWS

Home | Current Version | Previous Version | Text Only | Print | Product List | Glossary On
Versions: 1 2 3 4 5 6 7 8 9 10 11 12 13 14 15 16 17 18 19 20 21 22 23 24 25 26 27 28 29 30 31 32 33 34 35 36 37
000
FTUS42 KRAH 252330
TAFRWI
TAF
KRWI 252330Z 2600/2624 18004KT P6SM FEW250
     FM260600 00000KT 4SM BR BKN100 PROB30 2612/2618 -RA SCT025
     FM261800 34006KT P6SM -SHRA BKN025=

USA.gov is the U.S. government's official web portal to all federal, state and local government web resources and services.